createdAt,value
2023-01-15T00:00:34.874Z,15.20
2023-01-15T00:03:01.614Z,14.70
2023-01-15T00:05:28.340Z,15.85
2023-01-15T00:07:55.356Z,11.73
2023-01-15T00:10:22.082Z,13.77
2023-01-15T00:12:48.888Z,13.25
2023-01-15T00:15:15.643Z,14.65
2023-01-15T00:17:42.357Z,15.05
2023-01-15T00:20:10.018Z,15.60
2023-01-15T00:22:36.796Z,14.13
2023-01-15T00:25:22.384Z,14.07
2023-01-15T00:27:49.206Z,13.68
2023-01-15T00:30:16.150Z,12.75
2023-01-15T00:32:43.670Z,16.40
2023-01-15T00:35:21.712Z,12.98
2023-01-15T00:37:48.694Z,11.90
2023-01-15T00:40:16.568Z,10.55
2023-01-15T00:42:43.337Z,13.90
2023-01-15T00:45:17.200Z,11.98
2023-01-15T00:47:44.956Z,12.15
2023-01-15T00:50:14.111Z,13.68
2023-01-15T00:52:41.177Z,10.95
2023-01-15T00:55:08.505Z,14.15
2023-01-15T00:57:35.266Z,13.55
2023-01-15T01:00:02.033Z,13.75
2023-01-15T01:02:28.864Z,15.27
2023-01-15T01:04:55.595Z,12.73
2023-01-15T01:07:22.340Z,12.55
2023-01-15T01:09:49.121Z,13.60
2023-01-15T01:12:15.932Z,13.93
2023-01-15T01:14:44.052Z,11.27
2023-01-15T01:17:10.865Z,17.25
2023-01-15T01:19:37.682Z,10.30
2023-01-15T01:22:04.414Z,11.23
2023-01-15T01:24:31.203Z,11.18
2023-01-15T01:26:58.013Z,14.30
2023-01-15T01:29:25.383Z,11.40
2023-01-15T01:31:52.480Z,10.00
2023-01-15T01:34:19.324Z,10.27
2023-01-15T01:36:46.116Z,12.40
2023-01-15T01:39:15.102Z,11.45
2023-01-15T01:41:42.030Z,10.23
2023-01-15T01:44:37.590Z,11.70
2023-01-15T01:47:11.574Z,13.27
2023-01-15T01:49:38.808Z,12.13
2023-01-15T01:52:10.984Z,12.38
2023-01-15T01:54:37.791Z,14.35
2023-01-15T01:57:05.272Z,10.80
2023-01-15T01:59:32.023Z,12.23
2023-01-15T02:01:58.825Z,12.30
2023-01-15T02:04:25.699Z,12.02
2023-01-15T02:06:52.450Z,11.85
2023-01-15T02:09:19.182Z,12.95
2023-01-15T02:11:45.924Z,12.07
2023-01-15T02:14:27.613Z,10.95
2023-01-15T02:16:57.607Z,12.70
2023-01-15T02:19:52.237Z,10.48
2023-01-15T02:22:43.529Z,11.20
2023-01-15T02:25:32.085Z,11.77
2023-01-15T02:28:04.442Z,9.90
2023-01-15T02:30:42.620Z,11.95
2023-01-15T02:33:20.433Z,12.95
2023-01-15T02:36:00.861Z,11.20
2023-01-15T02:38:30.173Z,12.60
2023-01-15T02:40:58.197Z,17.10
2023-01-15T02:43:25.003Z,11.27
2023-01-15T02:45:54.944Z,10.13
2023-01-15T02:48:23.885Z,15.05
2023-01-15T02:51:01.032Z,11.23
2023-01-15T02:53:28.763Z,11.93
2023-01-15T02:55:57.878Z,12.48
2023-01-15T02:58:26.877Z,10.18
2023-01-15T03:00:54.741Z,9.65
2023-01-15T03:03:36.029Z,8.85
2023-01-15T03:06:11.033Z,7.88
2023-01-15T03:08:37.802Z,10.52
2023-01-15T03:11:13.010Z,8.95
2023-01-15T03:13:42.888Z,7.57
2023-01-15T03:16:31.279Z,11.38
2023-01-15T03:19:18.268Z,10.65
2023-01-15T03:21:50.245Z,9.13
2023-01-15T03:24:21.401Z,9.98
2023-01-15T03:26:48.157Z,9.57
2023-01-15T03:29:14.868Z,12.20
2023-01-15T03:31:41.677Z,8.75
2023-01-15T03:34:08.683Z,9.60
2023-01-15T03:36:35.457Z,10.10
2023-01-15T03:39:02.261Z,8.63
2023-01-15T03:41:44.117Z,9.35
2023-01-15T03:44:42.992Z,7.50
2023-01-15T03:47:42.249Z,12.77
2023-01-15T03:50:20.957Z,11.48
2023-01-15T03:53:10.886Z,9.38
2023-01-15T03:55:45.739Z,8.82
2023-01-15T03:58:18.471Z,9.23
2023-01-15T04:00:54.091Z,9.48
2023-01-15T04:03:21.776Z,11.10
2023-01-15T04:05:48.881Z,8.90
2023-01-15T04:08:17.901Z,6.57
2023-01-15T04:11:01.347Z,9.85
2023-01-15T04:13:30.994Z,9.25
2023-01-15T04:15:58.079Z,9.00
2023-01-15T04:18:24.905Z,9.32
2023-01-15T04:20:51.617Z,8.93
2023-01-15T04:23:18.364Z,8.57
2023-01-15T04:25:45.085Z,7.20
2023-01-15T04:28:13.053Z,10.93
2023-01-15T04:30:39.915Z,9.65
2023-01-15T04:33:06.697Z,11.60
2023-01-15T04:35:33.557Z,7.55
2023-01-15T04:38:00.488Z,9.85
2023-01-15T04:40:46.296Z,9.25
2023-01-15T04:43:32.456Z,8.98
2023-01-15T04:45:59.343Z,9.40
2023-01-15T04:48:26.505Z,9.18
2023-01-15T04:50:54.760Z,7.30
2023-01-15T04:53:21.539Z,10.23
2023-01-15T04:55:48.291Z,9.02
2023-01-15T04:58:15.279Z,9.20
2023-01-15T05:00:42.094Z,7.70
2023-01-15T05:03:08.801Z,8.77
2023-01-15T05:05:35.540Z,8.10
2023-01-15T05:08:02.244Z,10.10
2023-01-15T05:10:28.967Z,9.00
2023-01-15T05:12:55.703Z,7.65
2023-01-15T05:15:22.418Z,8.43
2023-01-15T05:17:49.183Z,6.82
2023-01-15T05:20:15.947Z,8.77
2023-01-15T05:22:42.769Z,11.02
2023-01-15T05:25:09.687Z,8.15
2023-01-15T05:27:36.454Z,8.75
2023-01-15T05:30:03.298Z,9.45
2023-01-15T05:32:30.975Z,7.55
2023-01-15T05:34:57.741Z,7.18
2023-01-15T05:37:24.543Z,6.68
2023-01-15T05:39:51.293Z,8.82
2023-01-15T05:42:17.998Z,7.00
2023-01-15T05:44:44.771Z,7.55
2023-01-15T05:47:11.525Z,6.95
2023-01-15T05:49:38.473Z,8.10
2023-01-15T05:52:05.270Z,7.68
2023-01-15T05:54:33.303Z,7.13
2023-01-15T05:57:01.348Z,7.50
2023-01-15T05:59:29.014Z,5.40
2023-01-15T06:01:55.925Z,7.72
2023-01-15T06:04:22.922Z,7.72
2023-01-15T06:06:50.801Z,9.68
2023-01-15T06:09:18.006Z,6.90
2023-01-15T06:11:44.792Z,6.60
2023-01-15T06:14:12.529Z,6.32
2023-01-15T06:16:41.185Z,6.50
2023-01-15T06:19:08.586Z,7.57
2023-01-15T06:21:35.660Z,9.05
2023-01-15T06:24:02.712Z,9.05
2023-01-15T06:26:29.497Z,6.38
2023-01-15T06:28:56.757Z,7.68
2023-01-15T06:31:23.921Z,7.32
2023-01-15T06:33:50.943Z,6.97
2023-01-15T06:36:21.603Z,5.95
2023-01-15T06:38:48.714Z,5.88
2023-01-15T06:41:39.464Z,8.35
2023-01-15T06:44:27.091Z,10.52
2023-01-15T06:47:13.512Z,6.78
2023-01-15T06:49:40.212Z,10.50
2023-01-15T06:52:07.075Z,9.23
2023-01-15T06:54:33.976Z,9.25
2023-01-15T06:57:00.886Z,6.38
2023-01-15T06:59:27.625Z,8.95
2023-01-15T07:01:54.443Z,7.47
2023-01-15T07:04:21.325Z,7.25
2023-01-15T07:06:48.084Z,12.45
2023-01-15T07:09:14.834Z,13.38
2023-01-15T07:11:49.622Z,10.07
2023-01-15T07:14:28.015Z,7.97
2023-01-15T07:16:55.507Z,8.48
2023-01-15T07:19:22.360Z,12.45
2023-01-15T07:21:49.133Z,8.55
2023-01-15T07:24:16.669Z,7.82
2023-01-15T07:26:43.463Z,9.63
2023-01-15T07:29:10.239Z,10.05
2023-01-15T07:31:37.378Z,7.30
2023-01-15T07:34:04.609Z,7.45
2023-01-15T07:36:31.432Z,9.95
2023-01-15T07:38:58.345Z,7.00
2023-01-15T07:41:43.469Z,7.38
2023-01-15T07:44:29.620Z,14.35
2023-01-15T07:47:14.861Z,12.27
2023-01-15T07:49:48.654Z,9.70
2023-01-15T07:52:19.763Z,9.85
2023-01-15T07:54:46.992Z,9.32
2023-01-15T07:57:15.266Z,9.00
2023-01-15T07:59:42.474Z,12.77
2023-01-15T08:02:09.509Z,10.90
2023-01-15T08:04:36.495Z,8.32
2023-01-15T08:07:03.542Z,9.45
2023-01-15T08:09:30.344Z,9.90
2023-01-15T08:12:19.156Z,8.40
2023-01-15T08:15:04.424Z,7.25
2023-01-15T08:17:35.149Z,10.07
2023-01-15T08:20:03.363Z,8.50
2023-01-15T08:22:30.090Z,8.88
2023-01-15T08:24:56.834Z,8.75
2023-01-15T08:27:23.709Z,9.10
2023-01-15T08:29:50.521Z,7.88
2023-01-15T08:32:17.257Z,8.10
2023-01-15T08:34:44.052Z,9.63
2023-01-15T08:37:10.861Z,9.57
2023-01-15T08:39:37.590Z,10.18
2023-01-15T08:42:04.548Z,10.25
2023-01-15T08:44:31.300Z,7.18
2023-01-15T08:46:57.989Z,9.15
2023-01-15T08:49:24.834Z,11.50
2023-01-15T08:51:52.179Z,9.55
2023-01-15T08:54:20.065Z,8.43
2023-01-15T08:56:47.059Z,8.27
2023-01-15T08:59:14.064Z,8.73
2023-01-15T09:01:41.243Z,7.47
2023-01-15T09:04:08.121Z,8.50
2023-01-15T09:06:35.306Z,6.30
2023-01-15T09:09:02.113Z,8.63
2023-01-15T09:11:28.877Z,8.52
2023-01-15T09:13:55.692Z,10.07
2023-01-15T09:16:22.554Z,7.40
2023-01-15T09:18:49.445Z,6.97
2023-01-15T09:21:16.340Z,8.25
2023-01-15T09:23:43.072Z,9.75
2023-01-15T09:26:31.464Z,7.10
2023-01-15T09:28:58.809Z,10.20
2023-01-15T09:31:28.255Z,8.27
2023-01-15T09:33:55.908Z,9.43
2023-01-15T09:36:30.579Z,6.55
2023-01-15T09:38:58.028Z,8.10
2023-01-15T09:41:44.318Z,7.32
2023-01-15T09:44:20.192Z,7.82
2023-01-15T09:46:53.761Z,10.00
2023-01-15T09:49:33.858Z,6.57
2023-01-15T09:52:06.843Z,10.00
2023-01-15T09:54:52.453Z,10.75
2023-01-15T09:57:19.376Z,9.90
2023-01-15T09:59:49.529Z,7.90
2023-01-15T10:02:22.500Z,8.07
2023-01-15T10:04:51.953Z,8.95
2023-01-15T10:07:21.129Z,12.02
2023-01-15T10:09:48.543Z,8.32
2023-01-15T10:12:35.330Z,9.75
2023-01-15T10:15:14.223Z,7.53
2023-01-15T10:17:42.520Z,8.32
2023-01-15T10:20:17.563Z,9.05
2023-01-15T10:23:26.648Z,8.30
2023-01-15T10:26:30.706Z,7.68
2023-01-15T10:29:21.606Z,13.05
2023-01-15T10:31:52.770Z,8.77
2023-01-15T10:34:34.564Z,13.15
2023-01-15T10:37:21.577Z,11.55
2023-01-15T10:40:09.261Z,7.72
2023-01-15T10:42:51.593Z,9.38
2023-01-15T10:45:30.122Z,8.40
2023-01-15T10:48:08.353Z,10.57
2023-01-15T10:50:35.246Z,28.52
2023-01-15T10:53:20.356Z,23.92
2023-01-15T10:55:50.119Z,9.40
2023-01-15T10:58:49.957Z,10.82
2023-01-15T11:01:19.778Z,14.50
2023-01-15T11:03:46.834Z,12.60
2023-01-15T11:06:17.619Z,31.83
2023-01-15T11:11:57.056Z,29.52
2023-01-15T11:14:54.561Z,17.13
2023-01-15T11:17:41.014Z,17.42
2023-01-15T11:20:34.552Z,14.55
2023-01-15T11:25:35.453Z,18.27
2023-01-15T11:28:06.823Z,15.02
2023-01-15T11:30:37.525Z,14.98
2023-01-15T11:33:05.127Z,16.83
2023-01-15T11:35:33.301Z,17.08
2023-01-15T11:38:07.677Z,11.75
2023-01-15T11:40:34.503Z,14.05
2023-01-15T11:43:21.529Z,13.43
2023-01-15T11:46:11.300Z,11.73
2023-01-15T11:49:03.770Z,9.38
2023-01-15T11:51:36.263Z,12.35
2023-01-15T11:54:04.245Z,11.13
2023-01-15T11:56:31.762Z,9.73
2023-01-15T11:59:00.404Z,9.50
2023-01-15T12:01:34.832Z,11.93
2023-01-15T12:04:04.782Z,13.50
2023-01-15T12:06:31.730Z,14.73
2023-01-15T12:09:28.004Z,13.15
2023-01-15T12:12:00.410Z,13.48
2023-01-15T12:15:11.479Z,17.27
2023-01-15T12:17:46.238Z,11.38
2023-01-15T12:20:22.227Z,14.90
2023-01-15T12:23:08.952Z,25.60
2023-01-15T12:25:57.627Z,14.52
2023-01-15T12:28:36.705Z,11.00
2023-01-15T12:31:18.924Z,13.32
2023-01-15T12:33:59.909Z,12.57
2023-01-15T12:36:33.907Z,14.45
2023-01-15T12:39:34.730Z,15.90
2023-01-15T12:42:22.331Z,12.70
2023-01-15T12:45:05.438Z,11.10
2023-01-15T12:47:32.142Z,10.32
2023-01-15T12:50:04.717Z,10.95
2023-01-15T12:52:35.914Z,12.13
2023-01-15T12:55:12.792Z,9.05
2023-01-15T12:57:42.794Z,12.98
2023-01-15T13:00:39.207Z,11.05
2023-01-15T13:03:15.201Z,12.93
2023-01-15T13:05:53.700Z,10.93
2023-01-15T13:08:29.403Z,15.90
2023-01-15T13:10:56.244Z,10.65
2023-01-15T13:13:35.386Z,11.32
2023-01-15T13:16:15.731Z,9.93
2023-01-15T13:18:51.957Z,13.38
2023-01-15T13:21:20.426Z,14.07
2023-01-15T13:24:16.575Z,11.95
2023-01-15T13:27:21.140Z,10.95
2023-01-15T13:30:09.147Z,12.27
2023-01-15T13:32:42.373Z,10.93
2023-01-15T13:35:30.516Z,14.32
2023-01-15T13:37:59.498Z,11.38
2023-01-15T13:40:34.876Z,11.50
2023-01-15T13:43:02.222Z,10.38
2023-01-15T13:45:40.564Z,12.32
2023-01-15T13:48:12.583Z,11.93
2023-01-15T13:50:50.980Z,10.32
2023-01-15T13:53:23.250Z,9.63
2023-01-15T13:55:52.663Z,15.10
2023-01-15T13:58:55.547Z,11.70
2023-01-15T14:01:31.715Z,12.10
2023-01-15T14:04:12.924Z,13.88
2023-01-15T14:06:50.104Z,12.25
2023-01-15T14:09:23.137Z,16.42
2023-01-15T14:15:06.395Z,15.50
2023-01-15T14:17:51.353Z,12.85
2023-01-15T14:20:45.719Z,15.10
2023-01-15T14:23:15.700Z,11.55
2023-01-15T14:26:33.165Z,13.98
2023-01-15T14:29:19.500Z,13.55
2023-01-15T14:31:47.655Z,11.50
2023-01-15T14:34:23.075Z,14.20
2023-01-15T14:36:53.726Z,14.70
2023-01-15T14:39:36.391Z,13.23
2023-01-15T14:42:28.791Z,14.60
2023-01-15T14:45:18.654Z,12.52
2023-01-15T14:47:49.833Z,13.75
2023-01-15T14:50:38.734Z,16.02
2023-01-15T14:53:11.845Z,10.20
2023-01-15T14:58:11.748Z,15.05
2023-01-15T15:00:40.161Z,11.60
2023-01-15T15:03:26.032Z,9.95
2023-01-15T15:05:52.816Z,12.85
2023-01-15T15:08:19.648Z,12.32
2023-01-15T15:10:49.996Z,12.95
2023-01-15T15:13:40.255Z,10.38
2023-01-15T15:16:22.858Z,10.90
2023-01-15T15:19:02.614Z,11.68
2023-01-15T15:21:32.132Z,13.80
2023-01-15T15:24:05.409Z,12.25
2023-01-15T15:26:33.876Z,13.77
2023-01-15T15:29:04.667Z,11.57
2023-01-15T15:31:32.553Z,13.43
2023-01-15T15:33:59.397Z,13.93
2023-01-15T15:36:29.818Z,21.98
2023-01-15T15:39:00.711Z,19.25
2023-01-15T15:41:49.403Z,16.25
2023-01-15T15:44:54.002Z,12.20
2023-01-15T15:47:51.246Z,12.50
2023-01-15T15:50:22.673Z,16.20
2023-01-15T15:52:50.463Z,15.20
2023-01-15T15:55:18.606Z,15.05
2023-01-15T15:57:56.153Z,13.20
2023-01-15T16:00:28.565Z,13.88
2023-01-15T16:02:55.360Z,15.63
2023-01-15T16:05:23.564Z,12.50
2023-01-15T16:07:50.531Z,13.05
2023-01-15T16:10:19.641Z,7.68
2023-01-15T16:12:54.017Z,7.95
2023-01-15T16:15:29.531Z,6.68
2023-01-15T16:17:57.247Z,5.20
2023-01-15T16:20:24.068Z,2.63
2023-01-15T16:23:01.948Z,4.53
2023-01-15T16:25:37.116Z,4.35
2023-01-15T16:28:04.144Z,3.22
2023-01-15T16:30:33.923Z,2.97
2023-01-15T16:33:02.145Z,3.42
2023-01-15T16:35:28.894Z,3.28
2023-01-15T16:37:56.572Z,3.55
2023-01-15T16:40:44.810Z,2.47
2023-01-15T16:43:22.008Z,2.13
2023-01-15T16:46:28.649Z,4.60
2023-01-15T16:49:18.184Z,2.65
2023-01-15T16:51:45.103Z,3.05
2023-01-15T16:54:32.147Z,2.55
2023-01-15T16:57:06.050Z,2.25
2023-01-15T16:59:32.786Z,2.85
2023-01-15T17:02:16.875Z,2.65
2023-01-15T17:04:46.982Z,2.75
2023-01-15T17:07:13.729Z,2.17
2023-01-15T17:09:50.205Z,2.75
2023-01-15T17:12:27.343Z,2.50
2023-01-15T17:14:54.191Z,2.28
2023-01-15T17:17:23.836Z,2.22
2023-01-15T17:19:51.332Z,2.20
2023-01-15T17:22:29.097Z,2.70
2023-01-15T17:24:57.221Z,2.53
2023-01-15T17:27:24.735Z,2.05
2023-01-15T17:29:51.607Z,2.17
2023-01-15T17:32:24.386Z,2.55
2023-01-15T17:34:51.157Z,2.58
2023-01-15T17:37:17.875Z,2.33
2023-01-15T17:39:44.633Z,2.08
2023-01-15T17:42:16.023Z,1.90
2023-01-15T17:44:42.844Z,1.60
2023-01-15T17:47:09.638Z,2.50
2023-01-15T17:49:36.678Z,1.85
2023-01-15T17:52:04.984Z,1.50
2023-01-15T17:54:50.258Z,1.42
2023-01-15T17:57:35.874Z,1.50
2023-01-15T18:00:22.449Z,1.40
2023-01-15T18:03:08.165Z,1.65
2023-01-15T18:05:35.398Z,1.63
2023-01-15T18:08:04.004Z,1.20
2023-01-15T18:10:30.744Z,1.20
2023-01-15T18:12:57.570Z,1.40
2023-01-15T18:15:24.407Z,1.25
2023-01-15T18:17:51.185Z,1.80
2023-01-15T18:20:17.962Z,2.60
2023-01-15T18:22:44.726Z,2.47
2023-01-15T18:25:11.971Z,1.35
2023-01-15T18:27:43.247Z,1.50
2023-01-15T18:30:14.320Z,1.80
2023-01-15T18:32:41.733Z,1.98
2023-01-15T18:35:08.820Z,1.50
2023-01-15T18:37:36.038Z,1.65
2023-01-15T18:40:02.850Z,1.60
2023-01-15T18:42:48.107Z,1.23
2023-01-15T18:45:33.425Z,2.42
2023-01-15T18:48:03.421Z,1.50
2023-01-15T18:50:30.159Z,1.25
2023-01-15T18:52:56.927Z,1.33
2023-01-15T18:55:26.784Z,1.98
2023-01-15T18:57:54.208Z,2.70
2023-01-15T19:00:21.611Z,2.30
2023-01-15T19:02:48.591Z,1.27
2023-01-15T19:05:17.098Z,2.05
2023-01-15T19:07:44.729Z,1.30
2023-01-15T19:10:12.492Z,2.50
2023-01-15T19:12:39.217Z,3.67
2023-01-15T19:15:25.662Z,2.45
2023-01-15T19:18:11.256Z,3.03
2023-01-15T19:20:38.957Z,1.73
2023-01-15T19:23:06.812Z,1.83
2023-01-15T19:25:41.635Z,1.40
2023-01-15T19:28:09.465Z,1.95
2023-01-15T19:30:37.671Z,1.55
2023-01-15T19:33:04.727Z,1.45
2023-01-15T19:35:31.601Z,2.30
2023-01-15T19:37:58.911Z,1.70
2023-01-15T19:40:29.111Z,2.70
2023-01-15T19:43:14.634Z,2.28
2023-01-15T19:46:01.562Z,1.70
2023-01-15T19:48:46.747Z,5.93
2023-01-15T19:51:13.801Z,1.77
2023-01-15T19:53:40.665Z,2.45
2023-01-15T19:56:08.021Z,1.60
2023-01-15T19:58:35.100Z,2.75
2023-01-15T20:01:03.213Z,1.30
2023-01-15T20:03:30.274Z,1.85
2023-01-15T20:05:58.780Z,1.70
2023-01-15T20:08:26.067Z,1.98
2023-01-15T20:10:52.924Z,1.38
2023-01-15T20:13:40.126Z,1.42
2023-01-15T20:16:08.621Z,1.50
2023-01-15T20:18:35.494Z,2.58
2023-01-15T20:21:02.280Z,0.98
2023-01-15T20:23:28.995Z,1.17
2023-01-15T20:26:04.180Z,1.20
2023-01-15T20:28:31.885Z,1.20
2023-01-15T20:30:59.986Z,1.05
2023-01-15T20:33:26.729Z,1.38
2023-01-15T20:35:54.442Z,1.10
2023-01-15T20:38:24.931Z,1.00
2023-01-15T20:40:52.290Z,1.70
2023-01-15T20:43:38.502Z,1.30
2023-01-15T20:46:12.693Z,1.35
2023-01-15T20:48:58.175Z,3.33
2023-01-15T20:51:25.020Z,1.98
2023-01-15T20:53:53.259Z,1.42
2023-01-15T20:56:20.137Z,1.85
2023-01-15T20:58:46.937Z,1.60
2023-01-15T21:01:13.777Z,1.60
2023-01-15T21:03:40.721Z,1.77
2023-01-15T21:06:08.173Z,1.83
2023-01-15T21:08:35.607Z,1.40
2023-01-15T21:11:02.549Z,2.47
2023-01-15T21:13:31.042Z,3.50
2023-01-15T21:16:00.144Z,3.53
2023-01-15T21:18:27.976Z,3.35
2023-01-15T21:20:55.051Z,2.25
2023-01-15T21:23:22.063Z,3.97
2023-01-15T21:25:49.344Z,2.42
2023-01-15T21:28:16.150Z,2.15
2023-01-15T21:30:44.324Z,2.53
2023-01-15T21:33:11.416Z,2.47
2023-01-15T21:35:41.449Z,2.47
2023-01-15T21:38:08.770Z,2.50
2023-01-15T21:40:38.827Z,3.20
2023-01-15T21:43:24.636Z,2.58
2023-01-15T21:46:10.646Z,2.25
2023-01-15T21:48:52.085Z,2.60
2023-01-15T21:51:34.572Z,3.38
2023-01-15T21:54:17.913Z,2.47
2023-01-15T21:59:15.013Z,1.90
2023-01-15T22:01:41.934Z,1.95
2023-01-15T22:04:08.792Z,2.05
2023-01-15T22:06:37.854Z,1.63
2023-01-15T22:09:04.772Z,2.03
2023-01-15T22:11:43.797Z,2.58
2023-01-15T22:14:31.548Z,2.08
2023-01-15T22:17:00.211Z,1.52
2023-01-15T22:19:28.597Z,1.92
2023-01-15T22:21:57.505Z,2.15
2023-01-15T22:24:31.658Z,2.83
2023-01-15T22:26:58.745Z,1.77
2023-01-15T22:29:27.040Z,1.67
2023-01-15T22:31:53.903Z,1.33
2023-01-15T22:34:24.193Z,1.40
2023-01-15T22:36:51.026Z,1.30
2023-01-15T22:39:17.913Z,2.10
2023-01-15T22:42:03.418Z,1.20
2023-01-15T22:44:30.371Z,1.52
2023-01-15T22:46:57.332Z,1.15
2023-01-15T22:49:24.369Z,1.73
2023-01-15T22:51:51.376Z,1.20
2023-01-15T22:54:19.259Z,1.15
2023-01-15T22:56:46.660Z,2.92
2023-01-15T22:59:13.693Z,1.10
2023-01-15T23:01:40.573Z,0.93
2023-01-15T23:04:18.086Z,1.77
2023-01-15T23:06:45.227Z,1.25
2023-01-15T23:09:12.099Z,1.80
2023-01-15T23:11:39.059Z,2.20
2023-01-15T23:14:06.695Z,2.80
2023-01-15T23:16:33.590Z,3.53
2023-01-15T23:19:01.393Z,1.30
2023-01-15T23:21:28.303Z,2.42
2023-01-15T23:23:56.129Z,1.52
2023-01-15T23:26:23.166Z,1.80
2023-01-15T23:28:50.876Z,1.30
2023-01-15T23:31:18.477Z,1.45
2023-01-15T23:33:45.517Z,4.13
2023-01-15T23:36:12.576Z,3.75
2023-01-15T23:38:40.269Z,1.75
2023-01-15T23:41:10.946Z,2.17
2023-01-15T23:43:56.737Z,5.07
2023-01-15T23:46:32.749Z,1.50
2023-01-15T23:49:00.625Z,1.67
2023-01-15T23:51:27.383Z,1.77
2023-01-15T23:53:55.493Z,1.45
2023-01-15T23:56:22.293Z,1.60
2023-01-15T23:58:49.132Z,1.30
